Time;durP1;ratioP1;P1;durP2;ratioP2;P2;SDS_P1;SDS_P2;PMS_P1;PMS_P2;Temp;Humidity;BMP_temperature;BMP_pressure;BME280_temperature;BME280_humidity;BME280_pressure;Samples;Min_cycle;Max_cycle;Signal;HPM_P1;HPM_P2
2023/10/29 00:00:08;;;;;;;3.80;1.60;;;;;;;;;;5113796;28;20249;-33
2023/10/29 00:02:33;;;;;;;3.70;1.40;;;;;;;;;;5114050;28;20257;-33
2023/10/29 00:04:58;;;;;;;6.90;1.70;;;;;;;;;;5114002;28;20473;-33
2023/10/29 00:07:23;;;;;;;5.25;1.63;;;;;;;;;;5113736;28;20384;-33
2023/10/29 00:09:49;;;;;;;4.67;1.50;;;;;;;;;;5114266;28;20110;-33
2023/10/29 00:12:14;;;;;;;6.03;1.50;;;;;;;;;;5113668;28;20056;-33
2023/10/29 00:14:39;;;;;;;3.97;1.53;;;;;;;;;;5113651;28;20757;-33
2023/10/29 00:17:04;;;;;;;3.60;1.50;;;;;;;;;;5113863;28;20015;-33
2023/10/29 00:19:31;;;;;;;2.65;1.50;;;;;;;;;;5095440;28;20612;-33
2023/10/29 00:21:57;;;;;;;4.45;1.50;;;;;;;;;;5113510;28;20035;-33
2023/10/29 00:24:22;;;;;;;2.53;1.40;;;;;;;;;;5113547;28;20024;-34
2023/10/29 00:26:47;;;;;;;3.08;1.48;;;;;;;;;;5114100;28;20016;-33
2023/10/29 00:29:13;;;;;;;3.23;1.50;;;;;;;;;;5116487;28;20397;-33
2023/10/29 00:31:38;;;;;;;4.37;1.70;;;;;;;;;;5118043;28;20280;-33
2023/10/29 00:34:03;;;;;;;2.22;1.40;;;;;;;;;;5117749;28;20629;-33
2023/10/29 00:36:28;;;;;;;4.63;1.30;;;;;;;;;;5117967;28;20016;-33
2023/10/29 00:38:54;;;;;;;3.80;1.30;;;;;;;;;;5117962;28;20295;-33
2023/10/29 00:41:19;;;;;;;3.13;1.40;;;;;;;;;;5117702;28;20605;-32
2023/10/29 00:43:44;;;;;;;8.77;1.50;;;;;;;;;;5117336;28;20022;-33
2023/10/29 00:46:11;;;;;;;4.43;1.50;;;;;;;;;;5117832;28;20256;-33
2023/10/29 00:48:36;;;;;;;6.82;1.52;;;;;;;;;;5117709;28;20245;-33
2023/10/29 00:51:02;;;;;;;3.10;1.20;;;;;;;;;;5116948;28;20375;-34
2023/10/29 00:53:28;;;;;;;3.10;1.10;;;;;;;;;;5117175;28;20027;-38
2023/10/29 00:55:53;;;;;;;2.75;1.48;;;;;;;;;;5117394;28;20011;-33
2023/10/29 00:58:19;;;;;;;2.42;1.17;;;;;;;;;;5117549;28;20015;-33
2023/10/29 01:00:44;;;;;;;4.28;1.25;;;;;;;;;;5117012;28;20077;-33
2023/10/29 01:03:09;;;;;;;4.60;1.73;;;;;;;;;;5116989;28;20023;-33
2023/10/29 01:05:35;;;;;;;3.07;1.30;;;;;;;;;;5116966;28;20008;-33
2023/10/29 01:08:01;;;;;;;2.63;1.07;;;;;;;;;;5116899;28;20743;-33
2023/10/29 01:10:26;;;;;;;10.15;2.00;;;;;;;;;;5116836;28;20685;-33
2023/10/29 01:12:51;;;;;;;6.17;1.40;;;;;;;;;;5116636;28;20020;-33
2023/10/29 01:15:16;;;;;;;2.97;1.20;;;;;;;;;;5117263;28;20268;-33
2023/10/29 01:17:42;;;;;;;3.50;1.35;;;;;;;;;;5116979;28;20041;-32
2023/10/29 01:20:07;;;;;;;3.15;1.10;;;;;;;;;;5116844;28;20030;-33
2023/10/29 01:22:33;;;;;;;2.95;1.00;;;;;;;;;;5116850;28;20020;-33
2023/10/29 01:24:58;;;;;;;2.20;1.20;;;;;;;;;;5116538;28;20012;-33
2023/10/29 01:27:24;;;;;;;3.47;1.47;;;;;;;;;;5116533;28;20089;-33
2023/10/29 01:29:49;;;;;;;3.28;1.10;;;;;;;;;;5116432;28;20265;-33
2023/10/29 01:32:14;;;;;;;4.40;1.07;;;;;;;;;;5116318;28;20447;-33
2023/10/29 01:34:39;;;;;;;2.53;1.15;;;;;;;;;;5116664;28;20016;-33
2023/10/29 01:37:05;;;;;;;2.17;1.20;;;;;;;;;;5116625;28;20012;-33
2023/10/29 01:39:30;;;;;;;2.90;1.30;;;;;;;;;;5097377;28;20261;-34
2023/10/29 01:41:57;;;;;;;3.22;1.10;;;;;;;;;;5116150;28;20019;-33
2023/10/29 01:44:23;;;;;;;2.42;1.30;;;;;;;;;;5116420;28;20421;-33
2023/10/29 01:46:48;;;;;;;3.90;1.38;;;;;;;;;;5116446;28;20020;-33
2023/10/29 01:49:14;;;;;;;2.45;1.20;;;;;;;;;;5116671;28;20031;-33
2023/10/29 01:51:39;;;;;;;2.63;1.20;;;;;;;;;;5116093;28;20426;-33
2023/10/29 01:54:04;;;;;;;3.90;1.10;;;;;;;;;;5116030;28;20269;-33
2023/10/29 01:56:29;;;;;;;7.95;1.30;;;;;;;;;;5115905;28;20763;-33
2023/10/29 01:58:54;;;;;;;3.70;1.13;;;;;;;;;;5116154;28;20037;-33
2023/10/29 02:01:20;;;;;;;2.63;1.10;;;;;;;;;;5115918;28;20027;-33
2023/10/29 02:03:45;;;;;;;5.10;1.20;;;;;;;;;;5116023;28;20265;-33
2023/10/29 02:06:17;;;;;;;2.20;1.17;;;;;;;;;;5115977;28;20022;-33
2023/10/29 02:08:42;;;;;;;3.78;1.13;;;;;;;;;;5116170;28;20254;-33
2023/10/29 02:11:07;;;;;;;3.60;1.25;;;;;;;;;;5116092;28;20339;-33
2023/10/29 02:13:32;;;;;;;5.83;1.40;;;;;;;;;;5115666;28;20549;-33
2023/10/29 02:15:57;;;;;;;3.63;1.27;;;;;;;;;;5115861;28;20253;-33
2023/10/29 02:18:23;;;;;;;4.90;1.70;;;;;;;;;;5115479;28;20169;-33
2023/10/29 02:20:48;;;;;;;3.60;1.42;;;;;;;;;;5115987;28;20019;-33
2023/10/29 02:23:13;;;;;;;4.13;1.20;;;;;;;;;;5115450;28;20050;-34
2023/10/29 02:25:38;;;;;;;5.23;1.40;;;;;;;;;;5115429;28;20250;-34
2023/10/29 02:28:03;;;;;;;2.85;1.02;;;;;;;;;;5115401;28;20254;-33
2023/10/29 02:30:29;;;;;;;5.33;1.13;;;;;;;;;;5096970;28;20030;-33
2023/10/29 02:32:54;;;;;;;5.67;1.00;;;;;;;;;;5115093;28;20282;-34
2023/10/29 02:35:19;;;;;;;3.57;1.27;;;;;;;;;;5115730;28;20265;-34
2023/10/29 02:37:44;;;;;;;2.83;1.20;;;;;;;;;;5115140;28;20600;-33
2023/10/29 02:40:10;;;;;;;3.83;1.30;;;;;;;;;;5115591;28;20008;-33
2023/10/29 02:42:35;;;;;;;1.83;0.75;;;;;;;;;;5115552;28;20336;-33
2023/10/29 02:45:00;;;;;;;3.77;1.17;;;;;;;;;;5115536;28;20024;-34
2023/10/29 02:47:25;;;;;;;7.05;1.20;;;;;;;;;;5114960;28;20015;-33
2023/10/29 02:49:50;;;;;;;2.83;0.90;;;;;;;;;;5114578;28;20023;-32
2023/10/29 02:52:16;;;;;;;4.10;1.10;;;;;;;;;;5113876;28;20034;-34
2023/10/29 02:54:41;;;;;;;12.90;0.93;;;;;;;;;;5114976;28;20043;-33
2023/10/29 02:57:06;;;;;;;2.00;0.70;;;;;;;;;;5115269;28;20047;-33
2023/10/29 02:59:31;;;;;;;6.83;0.80;;;;;;;;;;5096495;28;20478;-34
2023/10/29 03:01:56;;;;;;;5.60;0.80;;;;;;;;;;5115117;28;20254;-33
2023/10/29 03:04:22;;;;;;;1.03;0.37;;;;;;;;;;5114827;28;20340;-33
2023/10/29 03:06:47;;;;;;;2.20;0.60;;;;;;;;;;5114549;28;20260;-33
2023/10/29 03:09:13;;;;;;;1.90;0.40;;;;;;;;;;5114557;28;20018;-34
2023/10/29 03:11:38;;;;;;;2.03;0.50;;;;;;;;;;5114357;28;20330;-34
2023/10/29 03:14:03;;;;;;;1.35;0.40;;;;;;;;;;5114968;28;20439;-33
2023/10/29 03:16:29;;;;;;;1.77;0.50;;;;;;;;;;5114389;28;20015;-33
2023/10/29 03:18:54;;;;;;;3.22;0.40;;;;;;;;;;5114213;28;20269;-33
2023/10/29 03:21:19;;;;;;;1.70;0.40;;;;;;;;;;5114577;28;20027;-33
2023/10/29 03:23:44;;;;;;;0.70;0.40;;;;;;;;;;5114216;28;20035;-33
2023/10/29 03:26:09;;;;;;;2.53;0.47;;;;;;;;;;5114205;28;20340;-34
2023/10/29 03:28:36;;;;;;;1.90;0.40;;;;;;;;;;5114136;28;20584;-33
2023/10/29 03:31:01;;;;;;;1.58;0.45;;;;;;;;;;5114312;28;20249;-33
2023/10/29 03:33:26;;;;;;;1.17;0.43;;;;;;;;;;5095842;28;20080;-33
2023/10/29 03:35:51;;;;;;;2.75;0.35;;;;;;;;;;5114918;28;20039;-34
2023/10/29 03:38:16;;;;;;;2.03;0.53;;;;;;;;;;5114062;28;20071;-33
2023/10/29 03:40:42;;;;;;;4.78;1.05;;;;;;;;;;5095724;28;20253;-33
2023/10/29 03:43:08;;;;;;;1.60;0.50;;;;;;;;;;5114235;28;20498;-33
2023/10/29 03:45:33;;;;;;;2.10;0.70;;;;;;;;;;5114234;28;20015;-33
2023/10/29 03:47:58;;;;;;;1.98;0.50;;;;;;;;;;5113897;28;20023;-33
2023/10/29 03:50:24;;;;;;;2.40;0.60;;;;;;;;;;5113832;28;20047;-33
2023/10/29 03:52:49;;;;;;;1.97;0.60;;;;;;;;;;5114334;28;20285;-34
2023/10/29 03:55:14;;;;;;;1.08;0.70;;;;;;;;;;5114067;28;20016;-33
2023/10/29 03:57:39;;;;;;;3.40;0.60;;;;;;;;;;5114331;28;20022;-33
2023/10/29 04:00:05;;;;;;;5.37;0.90;;;;;;;;;;5113811;28;20273;-33
2023/10/29 04:02:30;;;;;;;1.27;0.70;;;;;;;;;;5114079;28;20310;-33
2023/10/29 04:04:55;;;;;;;2.20;0.80;;;;;;;;;;5114238;28;20114;-33
2023/10/29 04:07:20;;;;;;;1.58;0.90;;;;;;;;;;5113684;28;20024;-34
2023/10/29 04:09:45;;;;;;;4.00;1.10;;;;;;;;;;5113709;28;20015;-31
2023/10/29 04:12:11;;;;;;;2.33;1.10;;;;;;;;;;5113915;28;20273;-33
2023/10/29 04:14:38;;;;;;;2.58;0.90;;;;;;;;;;5113582;28;20386;-33
2023/10/29 04:17:04;;;;;;;1.88;0.80;;;;;;;;;;5114184;28;20027;-32
2023/10/29 04:19:29;;;;;;;2.10;0.93;;;;;;;;;;5113780;28;20447;-32
2023/10/29 04:21:54;;;;;;;3.90;1.00;;;;;;;;;;5113993;28;20051;-33
2023/10/29 04:24:20;;;;;;;1.83;1.00;;;;;;;;;;5095298;28;20016;-33
2023/10/29 04:26:45;;;;;;;7.80;1.20;;;;;;;;;;5113473;28;20834;-33
2023/10/29 04:29:10;;;;;;;1.58;0.82;;;;;;;;;;5113674;28;20466;-33
2023/10/29 04:31:35;;;;;;;3.97;1.00;;;;;;;;;;5113811;28;20098;-33
2023/10/29 04:34:00;;;;;;;3.50;1.03;;;;;;;;;;5113477;28;20012;-33
2023/10/29 04:36:26;;;;;;;3.43;0.97;;;;;;;;;;5095215;28;20027;-33
2023/10/29 04:38:51;;;;;;;6.43;1.03;;;;;;;;;;5113932;28;20254;-33
2023/10/29 04:41:16;;;;;;;2.97;1.15;;;;;;;;;;5113366;28;20302;-34
2023/10/29 04:43:42;;;;;;;1.77;0.90;;;;;;;;;;5113352;28;20020;-34
2023/10/29 04:46:08;;;;;;;9.18;2.22;;;;;;;;;;5113336;28;20024;-33
2023/10/29 04:48:34;;;;;;;4.63;1.20;;;;;;;;;;5113266;28;20169;-33
2023/10/29 04:50:59;;;;;;;6.10;1.55;;;;;;;;;;5113403;28;20043;-33
2023/10/29 04:53:24;;;;;;;2.73;0.87;;;;;;;;;;5113829;28;20008;-32
2023/10/29 04:55:49;;;;;;;2.20;0.50;;;;;;;;;;5113766;28;20059;-33
2023/10/29 04:58:14;;;;;;;3.50;0.67;;;;;;;;;;5113184;28;20319;-33
2023/10/29 05:00:39;;;;;;;3.93;0.80;;;;;;;;;;5113261;28;20709;-33
2023/10/29 05:03:05;;;;;;;2.27;0.77;;;;;;;;;;5113735;28;20019;-33
2023/10/29 05:05:30;;;;;;;2.70;0.80;;;;;;;;;;5113182;28;20386;-33
2023/10/29 05:07:55;;;;;;;2.78;0.65;;;;;;;;;;5113340;28;20260;-33
2023/10/29 05:10:21;;;;;;;5.07;1.00;;;;;;;;;;5113151;28;20023;-33
2023/10/29 05:12:46;;;;;;;4.60;0.98;;;;;;;;;;5113169;28;20315;-33
2023/10/29 05:15:12;;;;;;;7.67;0.80;;;;;;;;;;5114706;28;20016;-32
2023/10/29 05:17:38;;;;;;;3.65;1.23;;;;;;;;;;5116920;28;20031;-33
2023/10/29 05:20:03;;;;;;;6.45;0.93;;;;;;;;;;5116681;28;20374;-33
2023/10/29 05:22:28;;;;;;;4.57;0.73;;;;;;;;;;5116537;28;20060;-33
2023/10/29 05:24:53;;;;;;;4.37;0.70;;;;;;;;;;5116589;28;20405;-33
2023/10/29 05:27:18;;;;;;;6.77;0.97;;;;;;;;;;5117063;28;20344;-34
2023/10/29 05:29:44;;;;;;;4.40;0.77;;;;;;;;;;5116527;28;20016;-33
2023/10/29 05:32:09;;;;;;;7.33;0.77;;;;;;;;;;5116915;28;20098;-32
2023/10/29 05:34:34;;;;;;;4.30;0.63;;;;;;;;;;5116973;28;20012;-33
2023/10/29 05:36:59;;;;;;;5.47;0.83;;;;;;;;;;5116918;28;20242;-33
2023/10/29 05:39:24;;;;;;;4.03;0.87;;;;;;;;;;5116851;28;20007;-33
2023/10/29 05:41:49;;;;;;;3.50;0.50;;;;;;;;;;5116265;28;20363;-33
2023/10/29 05:44:15;;;;;;;1.90;0.40;;;;;;;;;;5116461;28;20190;-33
2023/10/29 05:46:40;;;;;;;3.35;0.47;;;;;;;;;;5116452;28;20020;-33
2023/10/29 05:49:05;;;;;;;3.57;0.40;;;;;;;;;;5116151;28;20385;-33
2023/10/29 05:51:30;;;;;;;2.40;0.50;;;;;;;;;;5115850;28;20297;-33
2023/10/29 05:53:55;;;;;;;6.80;0.90;;;;;;;;;;5116561;28;20318;-33
2023/10/29 05:56:21;;;;;;;9.00;0.87;;;;;;;;;;5115965;28;20754;-33
2023/10/29 05:58:46;;;;;;;3.38;0.73;;;;;;;;;;5116439;28;20022;-33
2023/10/29 06:01:11;;;;;;;4.53;1.07;;;;;;;;;;5115950;28;20427;-33
2023/10/29 06:03:36;;;;;;;4.32;0.68;;;;;;;;;;5115835;28;20326;-32
2023/10/29 06:06:02;;;;;;;2.72;0.68;;;;;;;;;;5115882;28;20030;-33
2023/10/29 06:08:27;;;;;;;13.60;1.67;;;;;;;;;;5115634;28;20492;-32
2023/10/29 06:10:52;;;;;;;3.40;0.80;;;;;;;;;;5115598;28;20012;-36
2023/10/29 06:13:18;;;;;;;2.20;0.50;;;;;;;;;;5116115;28;20273;-32
2023/10/29 06:15:43;;;;;;;5.22;0.93;;;;;;;;;;5115639;28;20043;-33
2023/10/29 06:18:08;;;;;;;5.10;1.03;;;;;;;;;;5115826;28;20090;-33
2023/10/29 06:20:34;;;;;;;6.53;0.90;;;;;;;;;;5115762;28;20259;-33
2023/10/29 06:22:59;;;;;;;3.50;0.98;;;;;;;;;;5115668;28;20049;-33
2023/10/29 06:25:24;;;;;;;7.18;1.20;;;;;;;;;;5115638;28;20369;-32
2023/10/29 06:27:49;;;;;;;8.30;1.40;;;;;;;;;;5115318;28;20019;-33
2023/10/29 06:30:16;;;;;;;4.25;1.10;;;;;;;;;;5115243;28;20269;-33
2023/10/29 06:32:41;;;;;;;6.35;1.08;;;;;;;;;;5115205;28;20015;-33
2023/10/29 06:35:07;;;;;;;4.72;1.20;;;;;;;;;;5115496;28;20023;-33
2023/10/29 06:37:32;;;;;;;3.22;0.80;;;;;;;;;;5115156;28;20485;-33
2023/10/29 06:39:57;;;;;;;5.97;1.00;;;;;;;;;;5096798;28;20072;-33
2023/10/29 06:42:22;;;;;;;4.30;0.73;;;;;;;;;;5115078;28;20019;-33
2023/10/29 06:44:47;;;;;;;7.77;0.83;;;;;;;;;;5114970;28;20342;-33
2023/10/29 06:47:14;;;;;;;10.73;1.00;;;;;;;;;;5114976;28;20257;-33
2023/10/29 06:49:39;;;;;;;6.30;1.08;;;;;;;;;;5114877;28;20103;-33
2023/10/29 06:52:06;;;;;;;4.78;1.10;;;;;;;;;;5114623;28;20131;-33
2023/10/29 06:54:31;;;;;;;3.53;0.85;;;;;;;;;;5115101;28;20072;-33
2023/10/29 06:56:56;;;;;;;5.77;0.80;;;;;;;;;;5114763;28;20028;-33
2023/10/29 06:59:21;;;;;;;4.20;1.27;;;;;;;;;;5114725;28;20724;-32
2023/10/29 07:01:50;;;;;;;2.42;0.93;;;;;;;;;;5115199;28;20018;-33
2023/10/29 07:04:15;;;;;;;6.07;1.25;;;;;;;;;;5114594;28;20030;-33
2023/10/29 07:06:40;;;;;;;8.33;1.13;;;;;;;;;;5115149;28;20023;-33
2023/10/29 07:09:05;;;;;;;5.07;0.93;;;;;;;;;;5114573;28;20245;-33
2023/10/29 07:11:31;;;;;;;4.43;1.38;;;;;;;;;;5114328;28;20281;-33
2023/10/29 07:13:56;;;;;;;3.67;1.05;;;;;;;;;;5114415;28;20016;-33
2023/10/29 07:16:21;;;;;;;6.15;1.45;;;;;;;;;;5114410;28;20068;-33
2023/10/29 07:18:46;;;;;;;4.88;0.80;;;;;;;;;;5114643;28;20470;-33
2023/10/29 07:21:12;;;;;;;4.67;1.20;;;;;;;;;;5114403;28;20041;-32
2023/10/29 07:23:37;;;;;;;2.60;0.80;;;;;;;;;;5114252;28;20265;-33
2023/10/29 07:26:02;;;;;;;7.10;1.40;;;;;;;;;;5114513;28;20011;-33
2023/10/29 07:28:28;;;;;;;8.38;1.52;;;;;;;;;;5114435;28;20474;-33
2023/10/29 07:30:53;;;;;;;5.30;1.15;;;;;;;;;;5114394;28;20016;-33
2023/10/29 07:33:19;;;;;;;9.80;1.90;;;;;;;;;;5095963;28;20023;-33
2023/10/29 07:35:45;;;;;;;4.13;1.20;;;;;;;;;;5114303;28;20022;-33
2023/10/29 07:38:10;;;;;;;5.13;1.25;;;;;;;;;;5113485;28;20254;-33
2023/10/29 07:40:38;;;;;;;5.40;1.30;;;;;;;;;;5114562;28;20026;-33
2023/10/29 07:43:04;;;;;;;5.47;1.48;;;;;;;;;;5114286;28;20260;-33
2023/10/29 07:45:29;;;;;;;9.57;1.40;;;;;;;;;;5114243;28;20024;-32
2023/10/29 07:47:54;;;;;;;5.72;1.23;;;;;;;;;;5113902;28;20020;-33
2023/10/29 07:50:21;;;;;;;6.43;1.23;;;;;;;;;;5114127;28;20067;-32
2023/10/29 07:52:46;;;;;;;5.28;1.40;;;;;;;;;;5113760;28;20102;-32
2023/10/29 07:55:11;;;;;;;8.47;1.40;;;;;;;;;;5113900;28;20059;-33
2023/10/29 07:57:38;;;;;;;8.07;1.40;;;;;;;;;;5113816;28;20257;-33
2023/10/29 08:00:04;;;;;;;5.32;1.20;;;;;;;;;;5113785;28;20269;-33
2023/10/29 08:02:30;;;;;;;4.88;1.27;;;;;;;;;;5113867;28;20015;-32
2023/10/29 08:04:55;;;;;;;10.00;1.42;;;;;;;;;;5095525;28;20012;-33
2023/10/29 08:07:20;;;;;;;5.83;1.27;;;;;;;;;;5114248;28;20023;-32
2023/10/29 08:09:45;;;;;;;4.03;1.20;;;;;;;;;;5113992;28;20351;-32
2023/10/29 08:12:11;;;;;;;5.32;1.27;;;;;;;;;;5113417;28;20273;-33
2023/10/29 08:14:36;;;;;;;5.18;0.98;;;;;;;;;;5113848;28;20024;-32
2023/10/29 08:17:01;;;;;;;7.83;1.37;;;;;;;;;;5113823;28;20345;-33
2023/10/29 08:19:27;;;;;;;8.57;1.30;;;;;;;;;;5114128;28;20061;-32
2023/10/29 08:21:52;;;;;;;9.85;1.42;;;;;;;;;;5113601;28;20034;-33
2023/10/29 08:24:17;;;;;;;4.90;1.20;;;;;;;;;;5114084;28;20027;-33
2023/10/29 08:26:42;;;;;;;4.53;1.50;;;;;;;;;;5113829;28;20024;-32
2023/10/29 08:29:08;;;;;;;7.13;1.42;;;;;;;;;;5113487;28;20020;-33
2023/10/29 08:31:33;;;;;;;7.68;2.00;;;;;;;;;;5113408;28;20099;-32
2023/10/29 08:33:58;;;;;;;6.38;1.63;;;;;;;;;;5113372;28;20020;-32
2023/10/29 08:36:24;;;;;;;8.57;1.57;;;;;;;;;;5112941;28;20026;-32
2023/10/29 08:38:49;;;;;;;9.40;1.25;;;;;;;;;;5113417;28;20019;-32
2023/10/29 08:41:15;;;;;;;6.05;1.30;;;;;;;;;;5113132;28;20080;-32
2023/10/29 08:43:41;;;;;;;5.72;0.93;;;;;;;;;;5113189;28;20111;-32
2023/10/29 08:46:06;;;;;;;4.97;1.33;;;;;;;;;;5113386;28;20099;-32
2023/10/29 08:48:31;;;;;;;4.00;1.23;;;;;;;;;;5113278;28;20051;-32
2023/10/29 08:50:57;;;;;;;7.32;1.50;;;;;;;;;;5115384;28;20360;-32
2023/10/29 08:53:22;;;;;;;8.98;1.42;;;;;;;;;;5117806;28;20019;-33
2023/10/29 08:55:47;;;;;;;7.87;1.50;;;;;;;;;;5117214;28;20366;-33
2023/10/29 08:58:12;;;;;;;9.35;1.60;;;;;;;;;;5117376;28;20089;-33
2023/10/29 09:00:38;;;;;;;7.50;1.30;;;;;;;;;;5117085;28;20016;-32
2023/10/29 09:03:03;;;;;;;5.35;1.25;;;;;;;;;;5116961;28;20027;-32
2023/10/29 09:05:28;;;;;;;5.67;1.50;;;;;;;;;;5116985;28;20047;-33
2023/10/29 09:07:53;;;;;;;6.35;1.58;;;;;;;;;;5116791;28;20027;-33
2023/10/29 09:10:19;;;;;;;4.97;1.23;;;;;;;;;;5117137;28;20068;-32
2023/10/29 09:12:44;;;;;;;8.52;1.63;;;;;;;;;;5116991;28;20374;-33
2023/10/29 09:15:10;;;;;;;10.53;1.63;;;;;;;;;;5116837;28;20440;-33
2023/10/29 09:17:36;;;;;;;8.68;1.98;;;;;;;;;;5116783;28;20016;-33
2023/10/29 09:20:01;;;;;;;8.23;1.50;;;;;;;;;;5116913;28;20473;-33
2023/10/29 09:22:26;;;;;;;8.07;1.87;;;;;;;;;;5116904;28;20607;-32
2023/10/29 09:24:51;;;;;;;8.88;1.50;;;;;;;;;;5116608;28;20807;-32
2023/10/29 09:27:16;;;;;;;6.33;1.60;;;;;;;;;;5117161;28;20031;-33
2023/10/29 09:29:42;;;;;;;9.87;1.87;;;;;;;;;;5116529;28;20020;-32
2023/10/29 09:32:07;;;;;;;8.03;1.80;;;;;;;;;;5116368;28;20027;-32
2023/10/29 09:34:33;;;;;;;9.80;2.60;;;;;;;;;;5116684;28;20011;-32
2023/10/29 09:36:58;;;;;;;8.35;1.58;;;;;;;;;;5116383;28;20015;-32
2023/10/29 09:39:23;;;;;;;7.15;1.60;;;;;;;;;;5116830;28;20024;-33
2023/10/29 09:41:51;;;;;;;10.53;1.90;;;;;;;;;;5116318;28;20020;-33
2023/10/29 09:44:17;;;;;;;8.65;1.63;;;;;;;;;;5116163;28;20051;-33
2023/10/29 09:46:43;;;;;;;9.70;1.80;;;;;;;;;;5116759;28;20451;-32
2023/10/29 09:49:09;;;;;;;8.52;2.08;;;;;;;;;;5116008;28;20019;-33
2023/10/29 09:51:35;;;;;;;11.27;1.70;;;;;;;;;;5116295;28;20521;-32
2023/10/29 09:54:00;;;;;;;14.38;2.28;;;;;;;;;;5116540;28;20018;-32
2023/10/29 09:56:26;;;;;;;8.68;1.73;;;;;;;;;;5115778;28;20077;-32
2023/10/29 09:58:51;;;;;;;7.10;1.83;;;;;;;;;;5115974;28;20011;-33
2023/10/29 10:01:17;;;;;;;8.70;1.63;;;;;;;;;;5097215;28;20022;-32
2023/10/29 10:03:42;;;;;;;8.43;1.25;;;;;;;;;;5116136;28;20051;-32
2023/10/29 10:06:08;;;;;;;6.70;1.30;;;;;;;;;;5115821;28;20019;-32
2023/10/29 10:08:33;;;;;;;14.15;1.40;;;;;;;;;;5115673;28;20752;-32
2023/10/29 10:10:59;;;;;;;10.15;1.60;;;;;;;;;;5115861;28;20015;-32
2023/10/29 10:13:41;;;;;;;8.35;1.40;;;;;;;;;;5115874;28;20027;-31
2023/10/29 10:16:06;;;;;;;7.80;1.52;;;;;;;;;;5115692;28;20427;-31
2023/10/29 10:18:46;;;;;;;9.38;1.48;;;;;;;;;;5115807;28;20020;-32
2023/10/29 10:21:12;;;;;;;10.32;1.60;;;;;;;;;;5097236;28;20019;-32
2023/10/29 10:23:54;;;;;;;12.95;2.08;;;;;;;;;;5115436;28;20024;-32
2023/10/29 10:26:30;;;;;;;11.40;2.10;;;;;;;;;;5115410;28;20114;-32
2023/10/29 10:28:56;;;;;;;9.48;1.88;;;;;;;;;;5115811;28;20094;-32
2023/10/29 10:31:22;;;;;;;9.48;1.60;;;;;;;;;;5115511;28;20474;-32
2023/10/29 10:33:47;;;;;;;9.25;2.03;;;;;;;;;;5115888;28;20343;-32
2023/10/29 10:36:13;;;;;;;13.07;1.90;;;;;;;;;;5115253;28;20458;-32
2023/10/29 10:38:51;;;;;;;8.30;1.80;;;;;;;;;;5114638;28;20012;-32
2023/10/29 10:41:16;;;;;;;7.20;1.80;;;;;;;;;;5114878;28;20292;-32
2023/10/29 10:43:42;;;;;;;9.82;2.05;;;;;;;;;;5115053;28;20451;-32
2023/10/29 10:46:07;;;;;;;11.27;2.17;;;;;;;;;;5115223;28;20016;-32
2023/10/29 10:48:33;;;;;;;11.88;1.95;;;;;;;;;;5114972;28;20069;-32
2023/10/29 10:50:59;;;;;;;14.35;1.83;;;;;;;;;;5114734;28;20044;-32
2023/10/29 10:53:25;;;;;;;11.93;2.10;;;;;;;;;;5115359;28;20032;-33
2023/10/29 10:55:50;;;;;;;11.30;2.13;;;;;;;;;;5114827;28;20020;-32
2023/10/29 10:58:17;;;;;;;15.73;2.15;;;;;;;;;;5114756;28;20015;-33
2023/10/29 11:00:43;;;;;;;8.48;1.80;;;;;;;;;;5114554;28;20458;-32
2023/10/29 11:03:08;;;;;;;15.40;2.25;;;;;;;;;;5114252;28;20027;-33
2023/10/29 11:05:33;;;;;;;13.88;2.05;;;;;;;;;;5115274;28;20024;-32
2023/10/29 11:07:59;;;;;;;9.25;2.00;;;;;;;;;;5114921;28;20152;-33
2023/10/29 11:10:25;;;;;;;11.00;2.13;;;;;;;;;;5115132;28;20161;-33
2023/10/29 11:12:51;;;;;;;12.18;1.80;;;;;;;;;;5113749;28;20355;-32
2023/10/29 11:15:16;;;;;;;11.07;2.10;;;;;;;;;;5114418;28;20012;-32
2023/10/29 11:17:51;;;;;;;9.63;2.00;;;;;;;;;;5114630;28;20435;-33
2023/10/29 11:20:35;;;;;;;12.05;1.73;;;;;;;;;;5114306;28;20327;-32
2023/10/29 11:23:07;;;;;;;7.25;1.58;;;;;;;;;;5114609;28;20027;-32
2023/10/29 11:25:32;;;;;;;13.60;2.03;;;;;;;;;;5114308;28;20103;-32
2023/10/29 11:27:57;;;;;;;13.73;2.00;;;;;;;;;;5114313;28;20102;-33
2023/10/29 11:30:23;;;;;;;13.03;2.10;;;;;;;;;;5114188;28;20277;-32
2023/10/29 11:33:06;;;;;;;11.15;1.92;;;;;;;;;;5114065;28;20016;-33
2023/10/29 11:35:32;;;;;;;10.75;1.95;;;;;;;;;;5114226;28;20026;-32
2023/10/29 11:37:59;;;;;;;10.90;2.03;;;;;;;;;;5114087;28;20374;-32
2023/10/29 11:40:25;;;;;;;11.98;2.08;;;;;;;;;;5114231;28;20024;-32
2023/10/29 11:42:53;;;;;;;10.18;1.92;;;;;;;;;;5113350;28;20094;-32
2023/10/29 11:45:34;;;;;;;16.73;2.25;;;;;;;;;;5113888;28;20103;-32
2023/10/29 11:48:06;;;;;;;14.57;2.55;;;;;;;;;;5113799;28;20373;-32
2023/10/29 11:50:31;;;;;;;16.90;2.17;;;;;;;;;;5113625;28;20078;-31
2023/10/29 11:52:56;;;;;;;18.20;2.88;;;;;;;;;;5113694;28;20051;-32
2023/10/29 11:55:22;;;;;;;13.63;1.80;;;;;;;;;;5113532;28;20462;-32
2023/10/29 11:57:48;;;;;;;8.10;1.88;;;;;;;;;;5114079;28;20425;-31
2023/10/29 12:00:14;;;;;;;12.70;2.10;;;;;;;;;;5114002;28;20012;-32
2023/10/29 12:02:39;;;;;;;15.20;2.00;;;;;;;;;;5112524;28;20110;-33
2023/10/29 12:05:08;;;;;;;18.85;2.45;;;;;;;;;;5111936;28;20015;-32
2023/10/29 12:07:33;;;;;;;11.38;2.00;;;;;;;;;;5110313;28;20502;-32
2023/10/29 12:09:59;;;;;;;7.50;1.90;;;;;;;;;;5111549;28;20023;-33
2023/10/29 12:12:24;;;;;;;10.90;1.80;;;;;;;;;;5111313;28;20058;-32
2023/10/29 12:14:49;;;;;;;13.13;1.93;;;;;;;;;;5111458;28;20058;-32
2023/10/29 12:17:15;;;;;;;12.03;1.70;;;;;;;;;;5112238;28;20455;-32
2023/10/29 12:19:41;;;;;;;12.07;2.10;;;;;;;;;;5113611;28;20245;-32
2023/10/29 12:22:17;;;;;;;14.25;2.15;;;;;;;;;;5113743;28;20269;-32
2023/10/29 12:24:42;;;;;;;13.18;2.13;;;;;;;;;;5115622;28;20027;-32
2023/10/29 12:27:08;;;;;;;15.70;2.40;;;;;;;;;;5099425;28;20023;-32
2023/10/29 12:29:33;;;;;;;8.57;2.47;;;;;;;;;;5118168;28;20366;-32
2023/10/29 12:31:58;;;;;;;9.47;1.73;;;;;;;;;;5117383;28;20454;-32
2023/10/29 12:34:23;;;;;;;10.63;2.10;;;;;;;;;;5117634;28;20102;-33
2023/10/29 12:36:49;;;;;;;8.70;2.30;;;;;;;;;;5117528;28;20016;-33
2023/10/29 12:39:14;;;;;;;18.88;2.60;;;;;;;;;;5117742;28;20268;-32
2023/10/29 12:41:39;;;;;;;11.38;2.28;;;;;;;;;;5117421;28;20483;-32
2023/10/29 12:44:14;;;;;;;11.30;2.30;;;;;;;;;;5117856;28;20084;-33
2023/10/29 12:46:46;;;;;;;14.10;2.45;;;;;;;;;;5117336;28;20462;-33
2023/10/29 12:49:12;;;;;;;13.13;2.08;;;;;;;;;;5117816;28;20085;-33
2023/10/29 12:51:41;;;;;;;15.65;2.45;;;;;;;;;;5116991;28;20044;-32
2023/10/29 12:54:23;;;;;;;12.52;2.22;;;;;;;;;;5117154;28;20462;-32
2023/10/29 12:56:59;;;;;;;12.63;2.30;;;;;;;;;;5117246;28;20018;-32
2023/10/29 12:59:27;;;;;;;11.98;2.08;;;;;;;;;;5117045;28;20023;-32
2023/10/29 13:01:53;;;;;;;9.48;2.05;;;;;;;;;;5117285;28;20374;-33
2023/10/29 13:04:18;;;;;;;8.98;1.75;;;;;;;;;;5117253;28;20070;-33
2023/10/29 13:06:44;;;;;;;13.13;1.88;;;;;;;;;;5098694;28;20503;-33
2023/10/29 13:09:11;;;;;;;11.55;1.90;;;;;;;;;;5117225;28;20042;-32
2023/10/29 13:11:38;;;;;;;10.80;2.03;;;;;;;;;;5116976;28;20024;-32
2023/10/29 13:14:03;;;;;;;10.90;2.00;;;;;;;;;;5117612;28;20043;-32
2023/10/29 13:16:28;;;;;;;10.90;2.10;;;;;;;;;;5117349;28;20054;-32
2023/10/29 13:18:54;;;;;;;12.13;2.07;;;;;;;;;;5116767;28;20736;-33
2023/10/29 13:21:19;;;;;;;9.55;1.98;;;;;;;;;;5116927;28;20012;-33
2023/10/29 13:23:44;;;;;;;8.00;1.60;;;;;;;;;;5116676;28;20141;-32
2023/10/29 13:26:10;;;;;;;10.30;1.70;;;;;;;;;;5117392;28;20016;-32
2023/10/29 13:28:35;;;;;;;12.23;2.20;;;;;;;;;;5117110;28;20046;-33
2023/10/29 13:31:00;;;;;;;12.50;1.77;;;;;;;;;;5117038;28;20729;-33
2023/10/29 13:33:25;;;;;;;12.63;2.10;;;;;;;;;;5098098;28;20106;-33
2023/10/29 13:35:51;;;;;;;7.90;2.13;;;;;;;;;;5116099;28;20303;-32
2023/10/29 13:38:16;;;;;;;10.60;2.10;;;;;;;;;;5116366;28;20728;-33
2023/10/29 13:40:43;;;;;;;13.85;2.53;;;;;;;;;;5116311;28;20019;-33
2023/10/29 13:43:08;;;;;;;8.80;2.15;;;;;;;;;;5116201;28;20028;-33
2023/10/29 13:45:33;;;;;;;13.57;2.00;;;;;;;;;;5098027;28;20023;-32
2023/10/29 13:47:59;;;;;;;10.77;2.20;;;;;;;;;;5116128;28;20628;-33
2023/10/29 13:50:24;;;;;;;13.80;2.10;;;;;;;;;;5116008;28;20051;-33
2023/10/29 13:52:49;;;;;;;12.23;2.10;;;;;;;;;;5116049;28;20031;-33
2023/10/29 13:55:14;;;;;;;8.60;1.70;;;;;;;;;;5116077;28;20261;-33
2023/10/29 13:57:40;;;;;;;12.03;2.03;;;;;;;;;;5116481;28;20024;-33
2023/10/29 14:00:08;;;;;;;13.82;2.08;;;;;;;;;;5116157;28;20711;-33
2023/10/29 14:02:33;;;;;;;11.73;2.13;;;;;;;;;;5116141;28;20144;-33
2023/10/29 14:04:59;;;;;;;9.57;1.70;;;;;;;;;;5116328;28;20086;-32
2023/10/29 14:07:26;;;;;;;13.77;2.17;;;;;;;;;;5116079;28;20020;-33
2023/10/29 14:09:51;;;;;;;11.82;1.90;;;;;;;;;;5116162;28;20108;-33
2023/10/29 14:12:16;;;;;;;11.47;1.77;;;;;;;;;;5115784;28;20102;-33
2023/10/29 14:14:41;;;;;;;9.73;1.83;;;;;;;;;;5115654;28;20677;-32
2023/10/29 14:17:07;;;;;;;13.33;2.13;;;;;;;;;;5115559;28;20019;-32
2023/10/29 14:19:32;;;;;;;8.95;1.52;;;;;;;;;;5115867;28;20087;-32
2023/10/29 14:21:57;;;;;;;10.48;1.85;;;;;;;;;;5116026;28;20047;-32
2023/10/29 14:24:23;;;;;;;10.30;1.93;;;;;;;;;;5115772;28;20073;-32
2023/10/29 14:26:48;;;;;;;11.73;2.38;;;;;;;;;;5115643;28;20261;-32
2023/10/29 14:29:13;;;;;;;10.38;1.75;;;;;;;;;;5115654;28;20023;-32
2023/10/29 14:31:38;;;;;;;7.55;1.85;;;;;;;;;;5115197;28;20474;-32